首页
METAR-TAF:

METAR-TAF

机场 :

Newquay Cornwall, 英格兰

纬度: 50-26N, 经度: 005-00W, 海拔: 119米

当前天气观测

该预报发布于38分钟前的06:20 UTC
风速6节,风向东北
温度 8°C
湿度 93%
气压 1010 hPa
能见度10公里或以上
少量云层高于2000英尺

METAR: EGHQ 200620Z 04006KT 9999 FEW020 08/07 Q1010

时间: 07:58 (06:58 UTC)

预报

该预报发布于34分钟前的06:24 UTC
预报有效从20日的 06点(UTC)到 20日的 15点(UTC)
风速12节,风向北转东北
能见度10公里或以上
少量云层高于1500英尺
几率 40% :
短暂存在
从 20日的 06点(UTC)到 20日的 15点(UTC)
风速15节,风向北转东北,有时为25节阵风

TAF: EGHQ 200624Z 2006/2015 03012KT 9999 FEW015 PROB40 TEMPO 2006/2015 02015G25KT

超过4000个机场的气象观测和天气预报(METAR&TAF报告)。

可查询的气象台以黄色和红色小点在地图上表示。

将鼠标移到小点上方,可查看气象台名称。

然后点击查看天气观测和预报。

如需切换地图:点击带黑十字的绿色按钮放大地图;点击带横线的绿色按钮缩小地图;或者点击绿色箭头查看邻近地区的地图。


METAR-TAF: